Upstream stations:
Downstream station:
SHEF ID: EREK1 NEOSHO R NR ERIE, KS
STATION TYPE:
PRECIP STAGE RIV-FLOW BAT-LOAD
in ft cfs volt
Ccp-Rev Ccp-Rev Ccp-Rev Ccp-Rev
(US/Central)
04/01 00:00 0.00 18.48 9300 12.60
04/01 01:00 0.00 18.46 9270 12.60
04/01 02:00 0.00 18.44 9250 12.60
04/01 03:00 0.00 18.41 9210 12.60
04/01 04:00 0.00 18.40 9190 12.54
04/01 05:00 0.00 18.37 9150 12.54
04/01 06:00 0.00 18.34 9110 12.54
04/01 07:00 0.00 18.32 9080 12.48
04/01 08:00 0.00 18.29 9040 12.48
04/01 09:00 0.00 18.22 8950 12.65
04/01 10:00 0.00 18.17 8880 13.65
04/01 11:00 0.00 18.13 8830 13.88
04/01 12:00 0.00 18.10 8790 14.24
04/01 13:00 0.00 18.08 8760 14.30
04/01 14:00 0.00 18.06 8730 14.41
04/01 15:00 0.00 18.04 8700 14.41
04/01 16:00 0.00 18.02 8680 14.35
04/01 17:00 0.00 17.99 8640 14.18
04/01 18:00 0.00 17.97 8610 14.00
04/01 19:00 0.00 17.94 8570 14.00
04/01 20:00 0.00 17.96 8590 13.42
04/01 21:00 0.00 17.95 8580 12.71
04/01 22:00 0.00 17.92 8540 12.65
04/01 23:00 0.00 17.88 8490 12.65